Time;durP1;ratioP1;P1;durP2;ratioP2;P2;SDS_P1;SDS_P2;PMS_P1;PMS_P2;Temp;Humidity;BMP_temperature;BMP_pressure;BME280_temperature;BME280_humidity;BME280_pressure;Samples;Min_cycle;Max_cycle;Signal;HPM_P1;HPM_P2
2023/02/19 00:01:52;;;;;;;7.90;4.30;;;;;;;5.02;70.28;98524.94;108912;1262;72915;-73
2023/02/19 00:04:22;;;;;;;8.10;4.80;;;;;;;4.98;70.33;98533.51;108891;1261;59155;-73
2023/02/19 00:06:51;;;;;;;11.40;5.10;;;;;;;4.93;70.68;98527.09;108813;1262;59377;-75
2023/02/19 00:09:20;;;;;;;7.80;4.80;;;;;;;4.90;70.72;98535.51;108812;1262;71761;-68
2023/02/19 00:11:49;;;;;;;7.70;3.80;;;;;;;4.87;70.84;98526.79;108941;1263;68445;-69
2023/02/19 00:14:19;;;;;;;7.60;5.60;;;;;;;4.84;71.02;98526.62;108894;1262;72735;-70
2023/02/19 00:16:48;;;;;;;10.30;4.00;;;;;;;4.82;71.07;98526.00;108894;1261;59451;-70
2023/02/19 00:19:18;;;;;;;7.60;5.10;;;;;;;4.80;71.27;98527.08;108913;1263;59380;-68
2023/02/19 00:21:49;;;;;;;7.00;4.10;;;;;;;4.77;71.23;98530.02;108908;1262;71621;-68
2023/02/19 00:24:17;;;;;;;9.20;4.20;;;;;;;4.74;71.38;98521.55;108129;1262;1002737;-74
2023/02/19 00:26:48;;;;;;;11.80;4.60;;;;;;;4.73;71.41;98520.97;108784;1263;73858;-72
2023/02/19 00:29:20;;;;;;;12.10;4.10;;;;;;;4.73;71.36;98526.06;108916;1262;61820;-72
2023/02/19 00:31:48;;;;;;;9.60;4.40;;;;;;;4.74;71.50;98522.73;108935;1262;59253;-69
2023/02/19 00:34:16;;;;;;;7.50;3.70;;;;;;;4.76;71.35;98520.16;108924;1262;73278;-74
2023/02/19 00:36:45;;;;;;;10.20;4.50;;;;;;;4.79;71.23;98515.42;108918;1262;67081;-71
2023/02/19 00:39:14;;;;;;;11.40;4.50;;;;;;;4.80;71.10;98528.46;108891;1263;72532;-70
2023/02/19 00:41:43;;;;;;;8.60;3.80;;;;;;;4.78;71.08;98525.37;108893;1262;59102;-69
2023/02/19 00:44:11;;;;;;;6.90;4.40;;;;;;;4.75;71.10;98528.13;108932;1263;60240;-67
2023/02/19 00:46:42;;;;;;;8.80;3.50;;;;;;;4.73;71.08;98536.14;108940;1262;72621;-69
2023/02/19 00:49:21;;;;;;;12.60;4.20;;;;;;;4.70;71.23;98536.18;108882;1262;67341;-67
2023/02/19 00:51:53;;;;;;;11.40;4.70;;;;;;;4.67;71.19;98535.45;108927;1263;72879;-68
2023/02/19 00:54:25;;;;;;;7.10;4.60;;;;;;;4.66;71.36;98528.11;108868;1262;60106;-69
2023/02/19 00:56:55;;;;;;;9.90;4.30;;;;;;;4.63;71.50;98529.56;108813;1263;60346;-69
2023/02/19 00:59:32;;;;;;;8.20;4.50;;;;;;;4.60;71.52;98529.52;108051;1262;1002812;-70
2023/02/19 01:02:03;;;;;;;11.80;4.20;;;;;;;4.58;71.69;98535.22;107381;1263;1002940;-69
2023/02/19 01:04:33;;;;;;;8.10;4.20;;;;;;;4.55;71.73;98538.15;108898;1262;71720;-67
2023/02/19 01:07:05;;;;;;;10.10;5.00;;;;;;;4.52;71.89;98537.93;108862;1262;59437;-68
2023/02/19 01:09:39;;;;;;;11.50;3.80;;;;;;;4.50;71.93;98539.19;108912;1263;60035;-67
2023/02/19 01:12:12;;;;;;;8.10;3.60;;;;;;;4.49;71.99;98542.51;108817;1262;74968;-66
2023/02/19 01:14:43;;;;;;;10.80;4.50;;;;;;;4.49;72.05;98543.00;108903;1263;66324;-67
2023/02/19 01:17:16;;;;;;;10.50;4.90;;;;;;;4.52;72.19;98542.56;108887;1262;72663;-69
2023/02/19 01:19:47;;;;;;;8.20;4.70;;;;;;;4.54;72.05;98548.21;108790;1262;58313;-68
2023/02/19 01:22:18;;;;;;;9.00;4.70;;;;;;;4.54;72.15;98548.38;108884;1263;60388;-72
2023/02/19 01:24:50;;;;;;;9.20;4.10;;;;;;;4.53;72.08;98553.51;108897;1263;74090;-70
2023/02/19 01:27:21;;;;;;;12.40;4.20;;;;;;;4.51;71.99;98547.23;108822;1262;66708;-69
2023/02/19 01:29:53;;;;;;;7.70;3.70;;;;;;;4.48;72.04;98545.37;108049;1262;1002435;-70
2023/02/19 01:32:25;;;;;;;14.30;4.90;;;;;;;4.45;72.25;98547.13;108882;1262;58291;-71
2023/02/19 01:34:56;;;;;;;10.00;3.60;;;;;;;4.42;72.21;98553.78;108931;1263;61463;-71
2023/02/19 01:37:26;;;;;;;11.90;4.70;;;;;;;4.37;72.41;98555.40;108806;1263;73299;-70
2023/02/19 01:40:05;;;;;;;7.10;3.50;;;;;;;4.34;72.55;98556.17;108827;1262;67753;-68
2023/02/19 01:42:34;;;;;;;10.70;4.30;;;;;;;4.32;72.73;98561.11;108882;1262;74530;-70
2023/02/19 01:45:45;;;;;;;11.10;6.10;;;;;;;4.28;72.77;98556.08;108802;1263;58614;-72
2023/02/19 01:54:43;;;;;;;8.30;3.70;;;;;;;4.28;73.12;98554.20;102155;1295;600750;-69
2023/02/19 01:57:15;;;;;;;11.90;5.60;;;;;;;4.29;73.13;98555.02;104508;1280;60891;-71
2023/02/19 01:59:43;;;;;;;6.20;3.80;;;;;;;4.32;73.02;98560.03;105786;1270;60829;-71
2023/02/19 02:02:12;;;;;;;6.60;4.30;;;;;;;4.33;72.97;98559.09;105468;1264;73562;-70
2023/02/19 02:04:40;;;;;;;7.10;4.00;;;;;;;4.33;72.98;98564.67;105401;1264;67386;-69
2023/02/19 02:12:50;;;;;;;7.50;3.70;;;;;;;4.26;73.09;98578.92;105336;1262;62104;-73
2023/02/19 02:15:22;;;;;;;8.90;4.50;;;;;;;4.24;73.16;98587.25;105545;1260;73124;-72
2023/02/19 02:18:29;;;;;;;6.80;3.50;;;;;;;4.22;73.33;98591.61;105489;1264;67641;-70
2023/02/19 02:21:02;;;;;;;10.50;4.50;;;;;;;4.19;73.45;98600.00;105804;1259;73665;-70
2023/02/19 02:24:03;;;;;;;12.60;4.40;;;;;;;4.17;73.61;98589.38;105758;1258;61934;-70
2023/02/19 02:26:44;;;;;;;10.00;3.90;;;;;;;4.15;73.69;98601.89;105562;1257;60459;-69
2023/02/19 02:29:59;;;;;;;6.90;3.60;;;;;;;4.16;73.84;98597.13;105601;1263;71668;-70
2023/02/19 02:32:34;;;;;;;11.20;4.60;;;;;;;4.20;73.76;98594.23;105650;1263;68867;-68
2023/02/19 02:35:09;;;;;;;10.00;4.80;;;;;;;4.22;73.69;98608.80;105692;1257;72698;-75
2023/02/19 02:37:39;;;;;;;10.00;3.70;;;;;;;4.23;73.59;98603.91;105933;1262;61317;-74
2023/02/19 02:40:08;;;;;;;7.40;4.30;;;;;;;4.24;73.71;98604.86;106838;1260;60658;-76
2023/02/19 02:42:38;;;;;;;10.60;3.90;;;;;;;4.23;73.47;98603.72;107038;1256;73234;-74
2023/02/19 02:45:36;;;;;;;5.10;3.60;;;;;;;4.21;73.55;98616.52;105737;1257;68286;-75
2023/02/19 02:48:40;;;;;;;9.50;3.50;;;;;;;4.19;73.64;98612.83;105847;1260;74512;-75
2023/02/19 02:51:25;;;;;;;9.20;5.30;;;;;;;4.15;73.94;98617.81;105901;1257;60778;-73
2023/02/19 02:56:55;;;;;;;6.20;3.90;;;;;;;4.07;74.12;98614.95;105632;1261;73941;-72
2023/02/19 02:59:25;;;;;;;10.80;3.80;;;;;;;4.05;74.42;98611.58;105678;1271;69441;-72
2023/02/19 03:02:10;;;;;;;8.30;4.50;;;;;;;4.05;74.55;98619.08;105718;1257;72495;-74
2023/02/19 03:07:40;;;;;;;12.00;4.20;;;;;;;4.00;74.88;98631.81;105679;1262;60315;-74
2023/02/19 03:10:11;;;;;;;10.10;3.70;;;;;;;3.97;75.10;98634.45;105791;1260;72079;-73
2023/02/19 03:21:05;;;;;;;9.60;4.90;;;;;;;3.79;76.05;98643.73;105272;1263;61973;-75
2023/02/19 03:26:21;;;;;;;7.10;4.40;;;;;;;3.74;76.58;98645.85;105588;1263;68978;-74
2023/02/19 03:31:41;;;;;;;9.20;4.00;;;;;;;3.76;76.98;98655.11;105702;1260;59670;-73
2023/02/19 03:34:13;;;;;;;11.60;4.40;;;;;;;3.75;77.20;98649.64;105481;1257;62098;-74
2023/02/19 03:36:54;;;;;;;10.60;4.50;;;;;;;3.73;77.34;98658.13;105520;1257;71988;-74
2023/02/19 03:39:22;;;;;;;8.80;4.70;;;;;;;3.71;77.49;98660.60;105772;1261;66570;-73
2023/02/19 03:41:54;;;;;;;10.20;3.80;;;;;;;3.67;77.63;98652.70;105531;1261;73300;-75
2023/02/19 03:44:44;;;;;;;6.30;4.10;;;;;;;3.63;77.62;98666.02;105679;1262;59617;-73
2023/02/19 03:47:26;;;;;;;10.50;3.50;;;;;;;3.60;77.95;98678.02;105745;1258;61904;-74
2023/02/19 03:49:57;;;;;;;9.90;4.00;;;;;;;3.58;78.04;98673.76;105701;1258;71665;-74
2023/02/19 03:52:35;;;;;;;12.20;4.40;;;;;;;3.58;77.92;98683.98;105753;1258;66809;-74
2023/02/19 03:55:31;;;;;;;10.40;4.10;;;;;;;3.60;77.82;98674.87;105756;1258;74166;-72
2023/02/19 03:58:18;;;;;;;9.20;3.90;;;;;;;3.59;77.49;98687.90;105804;1260;59893;-73
2023/02/19 04:00:50;;;;;;;9.70;4.00;;;;;;;3.57;77.42;98683.05;105500;1257;61526;-73
2023/02/19 04:03:40;;;;;;;11.00;7.60;;;;;;;3.55;77.48;98690.65;106230;1260;73417;-73
2023/02/19 04:06:13;;;;;;;12.80;3.80;;;;;;;3.50;77.57;98686.50;107887;1256;67635;-76
2023/02/19 04:08:46;;;;;;;14.30;6.00;;;;;;;3.47;77.68;98695.46;108013;1258;71528;-72
2023/02/19 04:11:15;;;;;;;10.00;3.70;;;;;;;3.44;77.72;98684.77;105395;1257;61890;-74
2023/02/19 04:13:45;;;;;;;8.80;3.90;;;;;;;3.42;77.95;98681.20;105610;1257;61055;-74
2023/02/19 04:16:19;;;;;;;12.00;6.30;;;;;;;3.42;78.07;98684.75;105701;1261;73380;-73
2023/02/19 04:18:53;;;;;;;9.80;3.40;;;;;;;3.44;78.23;98682.10;105768;1260;66621;-76
2023/02/19 04:21:22;;;;;;;10.40;3.70;;;;;;;3.46;78.27;98685.38;105751;1256;73259;-73
2023/02/19 04:23:51;;;;;;;9.70;4.00;;;;;;;3.47;78.41;98679.39;105751;1258;59911;-75
2023/02/19 04:26:19;;;;;;;10.50;4.00;;;;;;;3.46;78.47;98673.20;105700;1257;60599;-74
2023/02/19 04:28:47;;;;;;;7.10;4.50;;;;;;;3.44;78.56;98671.20;105486;1258;72561;-73
2023/02/19 04:31:17;;;;;;;9.80;4.80;;;;;;;3.42;78.70;98682.30;105480;1264;69277;-72
2023/02/19 04:33:45;;;;;;;8.00;4.40;;;;;;;3.38;78.78;98690.23;105503;1264;72222;-74
2023/02/19 04:36:13;;;;;;;8.20;4.00;;;;;;;3.34;79.06;98700.08;105764;1257;62300;-72
2023/02/19 04:38:41;;;;;;;7.50;4.00;;;;;;;3.31;79.34;98701.80;105738;1261;61007;-74
2023/02/19 04:41:12;;;;;;;12.90;4.10;;;;;;;3.30;79.51;98698.49;105699;1260;73224;-73
2023/02/19 04:43:41;;;;;;;12.90;4.00;;;;;;;3.30;79.50;98699.02;105743;1260;68751;-73
2023/02/19 04:46:11;;;;;;;5.60;3.80;;;;;;;3.29;79.62;98711.50;105670;1256;71147;-73
2023/02/19 04:48:41;;;;;;;9.40;6.40;;;;;;;3.27;79.59;98709.23;105703;1256;59633;-71
2023/02/19 04:51:10;;;;;;;8.00;4.00;;;;;;;3.23;79.56;98712.96;105688;1256;60189;-71
2023/02/19 04:53:39;;;;;;;10.10;4.30;;;;;;;3.18;79.41;98723.67;105524;1258;73695;-71
2023/02/19 04:56:08;;;;;;;10.90;4.60;;;;;;;3.13;79.47;98726.67;104785;1260;1002444;-72
2023/02/19 04:58:38;;;;;;;9.70;4.70;;;;;;;3.09;79.34;98730.45;105743;1256;73306;-71
2023/02/19 05:01:06;;;;;;;11.30;4.30;;;;;;;3.06;79.27;98734.79;105684;1263;61106;-72
2023/02/19 05:03:34;;;;;;;14.60;4.20;;;;;;;3.06;79.06;98730.48;105677;1257;59637;-72
2023/02/19 05:06:08;;;;;;;6.80;4.10;;;;;;;3.07;79.03;98736.39;105800;1256;72820;-72
2023/02/19 05:08:36;;;;;;;10.80;4.50;;;;;;;3.07;78.89;98734.31;105805;1256;69821;-74
2023/02/19 05:11:06;;;;;;;9.80;4.10;;;;;;;3.06;78.88;98738.55;105569;1260;72328;-74
2023/02/19 05:13:37;;;;;;;8.20;4.60;;;;;;;3.04;79.13;98746.98;105693;1257;61202;-70
2023/02/19 05:16:12;;;;;;;10.30;4.60;;;;;;;3.01;79.51;98746.85;105759;1256;61139;-73
2023/02/19 05:18:41;;;;;;;12.10;4.10;;;;;;;2.97;79.85;98748.13;105853;1260;72788;-71
2023/02/19 05:21:10;;;;;;;8.60;4.70;;;;;;;2.94;80.23;98754.42;105710;1260;68346;-72
2023/02/19 05:23:39;;;;;;;12.30;4.90;;;;;;;2.92;80.78;98756.86;105889;1258;74489;-70
2023/02/19 05:26:08;;;;;;;10.70;4.50;;;;;;;2.93;81.25;98760.66;105671;1261;60648;-74
2023/02/19 05:28:38;;;;;;;7.00;4.50;;;;;;;2.95;81.69;98757.69;105628;1258;62427;-70
2023/02/19 05:31:07;;;;;;;8.10;4.80;;;;;;;2.97;81.91;98757.05;105644;1260;74661;-75
2023/02/19 05:33:36;;;;;;;12.50;4.90;;;;;;;2.98;81.94;98753.88;105769;1260;67828;-73
2023/02/19 05:36:12;;;;;;;7.90;4.50;;;;;;;2.97;82.21;98759.77;105699;1256;73167;-71
2023/02/19 05:38:41;;;;;;;11.30;5.30;;;;;;;2.96;82.18;98763.36;105684;1260;60467;-73
2023/02/19 05:41:17;;;;;;;11.60;6.10;;;;;;;2.93;82.26;98759.38;105614;1260;60609;-72
2023/02/19 05:43:46;;;;;;;6.90;4.30;;;;;;;2.89;82.48;98769.00;105661;1257;73663;-73
2023/02/19 05:46:15;;;;;;;16.40;5.80;;;;;;;2.86;82.45;98768.88;105544;1257;68870;-72
2023/02/19 05:48:44;;;;;;;8.40;3.70;;;;;;;2.84;82.41;98761.40;105433;1257;72299;-71
2023/02/19 05:51:14;;;;;;;11.40;5.40;;;;;;;2.85;82.40;98763.77;105707;1256;59766;-75
2023/02/19 05:53:43;;;;;;;8.50;4.60;;;;;;;2.88;82.33;98773.90;105787;1256;60383;-73
2023/02/19 05:56:26;;;;;;;12.80;4.30;;;;;;;2.90;81.97;98771.83;105754;1260;74847;-71
2023/02/19 05:58:54;;;;;;;14.70;4.60;;;;;;;2.91;81.41;98770.12;105755;1256;68741;-74
2023/02/19 06:01:25;;;;;;;9.40;3.90;;;;;;;2.90;81.21;98776.30;105563;1256;72275;-73
2023/02/19 06:03:54;;;;;;;5.40;3.40;;;;;;;2.89;80.93;98779.98;105457;1256;61031;-71
2023/02/19 06:06:24;;;;;;;8.50;4.40;;;;;;;2.88;80.80;98789.56;105527;1257;62174;-73
2023/02/19 06:08:53;;;;;;;9.00;3.80;;;;;;;2.86;80.83;98787.01;105744;1256;73348;-74
2023/02/19 06:11:21;;;;;;;11.50;5.40;;;;;;;2.85;81.06;98793.63;105567;1261;69587;-73
2023/02/19 06:13:50;;;;;;;9.30;4.00;;;;;;;2.86;81.34;98795.17;105507;1256;72988;-72
2023/02/19 06:16:20;;;;;;;15.20;5.50;;;;;;;2.87;81.55;98791.20;105820;1256;61141;-72
2023/02/19 06:18:54;;;;;;;10.20;4.20;;;;;;;2.92;81.52;98795.42;105674;1260;62182;-72
2023/02/19 06:21:22;;;;;;;9.10;5.10;;;;;;;2.95;81.62;98791.43;105713;1256;75181;-75
2023/02/19 06:23:50;;;;;;;10.60;5.90;;;;;;;2.98;81.44;98787.71;105753;1260;68831;-73
2023/02/19 06:26:21;;;;;;;7.10;3.70;;;;;;;2.99;81.35;98791.54;105760;1256;74433;-72
2023/02/19 06:28:50;;;;;;;9.60;5.20;;;;;;;3.01;81.14;98791.52;105757;1256;60492;-71
2023/02/19 06:31:19;;;;;;;6.50;4.00;;;;;;;3.02;81.06;98790.81;105718;1256;60462;-74
2023/02/19 06:33:49;;;;;;;9.60;4.10;;;;;;;3.03;80.83;98785.68;105405;1260;74286;-74
2023/02/19 06:36:18;;;;;;;7.30;3.80;;;;;;;3.04;80.65;98784.66;105712;1260;69330;-72
2023/02/19 06:38:46;;;;;;;11.40;4.30;;;;;;;3.06;80.46;98782.87;105727;1260;74321;-75
2023/02/19 06:41:19;;;;;;;;;;;;;;;3.11;80.32;98784.86;105680;1256;60980;-71
2023/02/19 06:43:48;;;;;;;10.40;4.10;;;;;;;3.17;80.02;98778.58;105642;1256;60418;-71
2023/02/19 06:46:17;;;;;;;10.30;4.50;;;;;;;3.20;79.73;98793.23;105615;1258;75541;-73
2023/02/19 06:48:45;;;;;;;10.40;4.90;;;;;;;3.25;79.53;98780.67;105673;1257;69066;-69
2023/02/19 06:51:17;;;;;;;11.80;4.10;;;;;;;3.29;79.39;98784.58;105694;1256;74436;-70
2023/02/19 06:53:45;;;;;;;13.50;4.10;;;;;;;3.31;79.06;98792.67;105707;1256;61043;-72
2023/02/19 06:56:21;;;;;;;9.40;3.80;;;;;;;3.34;79.07;98781.48;105646;1256;60830;-71
2023/02/19 06:58:51;;;;;;;5.80;3.20;;;;;;;3.37;78.98;98788.95;105532;1258;73461;-72
2023/02/19 07:01:20;;;;;;;5.90;3.60;;;;;;;3.42;78.82;98790.90;105554;1256;68028;-70
2023/02/19 07:03:51;;;;;;;6.70;3.30;;;;;;;3.48;78.69;98790.36;105678;1256;73802;-71
2023/02/19 07:06:20;;;;;;;17.80;7.70;;;;;;;3.55;78.48;98785.91;105814;1260;60464;-72
2023/02/19 07:08:52;;;;;;;9.30;4.00;;;;;;;3.60;78.22;98791.63;105786;1256;62304;-71
2023/02/19 07:11:20;;;;;;;10.80;4.40;;;;;;;3.64;77.94;98790.88;105449;1264;74766;-71
2023/02/19 07:13:58;;;;;;;7.10;3.80;;;;;;;3.66;77.98;98794.55;105676;1256;67458;-71
2023/02/19 07:16:28;;;;;;;9.50;3.70;;;;;;;3.68;77.91;98788.33;105701;1256;73257;-72
2023/02/19 07:18:56;;;;;;;11.60;3.90;;;;;;;3.69;77.80;98776.13;105736;1256;61680;-74
2023/02/19 07:21:30;;;;;;;7.00;3.50;;;;;;;3.72;78.01;98786.21;105646;1256;61951;-68
2023/02/19 07:23:59;;;;;;;6.00;3.80;;;;;;;3.78;77.90;98794.11;105476;1260;75609;-71
2023/02/19 07:26:33;;;;;;;8.80;3.80;;;;;;;3.84;77.74;98798.35;105710;1256;69157;-72
2023/02/19 07:29:01;;;;;;;10.90;5.00;;;;;;;3.88;77.61;98804.90;105541;1256;71190;-73
2023/02/19 07:31:29;;;;;;;8.20;3.70;;;;;;;3.92;77.58;98794.74;105408;1260;60429;-71
2023/02/19 07:33:57;;;;;;;10.70;4.80;;;;;;;3.96;77.47;98789.23;105485;1257;61152;-72
2023/02/19 07:36:25;;;;;;;9.60;4.40;;;;;;;3.98;77.31;98787.68;105753;1256;72540;-74
2023/02/19 07:38:55;;;;;;;13.80;4.60;;;;;;;4.00;77.55;98789.74;105418;1263;68934;-73
2023/02/19 07:41:23;;;;;;;7.30;4.00;;;;;;;4.02;77.41;98788.73;105695;1257;74305;-73
2023/02/19 07:43:52;;;;;;;9.20;3.70;;;;;;;4.05;77.55;98788.92;105536;1256;63064;-72
2023/02/19 07:46:21;;;;;;;8.20;4.10;;;;;;;4.10;77.42;98796.00;105493;1256;60928;-71
2023/02/19 07:48:49;;;;;;;13.70;4.90;;;;;;;4.14;77.29;98786.96;105575;1258;74736;-79
2023/02/19 07:51:18;;;;;;;13.80;4.30;;;;;;;4.19;77.16;98818.93;105581;1258;69142;-69
2023/02/19 07:53:49;;;;;;;10.80;4.40;;;;;;;4.20;76.98;98793.27;105612;1258;73218;-72
2023/02/19 07:56:17;;;;;;;11.20;4.00;;;;;;;4.20;77.16;98790.84;105507;1261;60461;-74
2023/02/19 07:58:45;;;;;;;6.20;3.80;;;;;;;4.21;77.32;98814.58;105561;1256;60381;-72
2023/02/19 08:04:28;;;;;;;12.30;6.10;;;;;;;4.20;77.11;98808.66;105161;1264;69232;-75
2023/02/19 08:06:57;;;;;;;8.10;4.70;;;;;;;4.22;77.30;98804.88;105239;1262;73008;-75
2023/02/19 08:09:25;;;;;;;12.90;4.80;;;;;;;4.27;77.17;98814.14;105408;1256;60419;-72
2023/02/19 08:14:48;;;;;;;8.90;3.70;;;;;;;4.31;77.13;98818.09;105447;1261;75439;-73
2023/02/19 08:17:16;;;;;;;6.30;4.00;;;;;;;4.32;77.24;98796.80;105476;1257;69572;-74
2023/02/19 08:19:44;;;;;;;12.10;6.10;;;;;;;4.32;76.90;98838.73;105714;1256;72773;-70
2023/02/19 08:22:15;;;;;;;7.20;3.60;;;;;;;4.29;76.31;98815.73;105571;1256;63064;-72
2023/02/19 08:24:43;;;;;;;7.70;3.70;;;;;;;4.31;76.77;98814.61;105580;1260;60331;-70
2023/02/19 08:27:11;;;;;;;8.30;4.20;;;;;;;4.34;77.01;98809.63;105677;1257;75456;-73
2023/02/19 08:29:39;;;;;;;9.00;3.90;;;;;;;4.41;77.06;98806.96;105529;1258;68542;-73
2023/02/19 08:32:08;;;;;;;10.00;3.70;;;;;;;4.52;76.98;98805.73;105795;1260;74208;-73
2023/02/19 08:34:37;;;;;;;6.90;4.40;;;;;;;4.61;76.73;98806.86;105528;1257;60510;-77
2023/02/19 08:37:05;;;;;;;10.30;4.30;;;;;;;4.66;76.11;98816.89;105493;1260;60410;-75
2023/02/19 08:39:33;;;;;;;7.60;3.60;;;;;;;4.68;75.56;98816.52;105476;1257;75509;-75
2023/02/19 08:42:02;;;;;;;6.00;3.90;;;;;;;4.70;75.36;98817.10;105703;1256;66780;-75
2023/02/19 08:44:31;;;;;;;6.80;3.50;;;;;;;4.74;75.53;98810.83;105672;1256;74180;-74
2023/02/19 08:47:01;;;;;;;9.40;3.70;;;;;;;4.78;74.95;98836.39;105583;1260;60523;-74
2023/02/19 08:49:31;;;;;;;5.70;3.30;;;;;;;4.78;74.62;98816.80;105394;1256;61155;-75
2023/02/19 08:51:59;;;;;;;8.20;3.50;;;;;;;4.78;73.98;98829.00;105340;1261;74614;-74
2023/02/19 08:54:29;;;;;;;7.70;3.90;;;;;;;4.77;73.39;98819.02;105624;1256;68231;-73
2023/02/19 08:56:57;;;;;;;8.50;3.70;;;;;;;4.74;72.53;98830.51;105345;1263;72666;-77
2023/02/19 08:59:27;;;;;;;5.40;3.40;;;;;;;4.67;72.36;98825.19;105568;1256;60445;-75
2023/02/19 09:01:59;;;;;;;5.80;3.80;;;;;;;4.60;72.31;98821.60;105610;1262;62114;-76
2023/02/19 09:04:27;;;;;;;8.20;3.40;;;;;;;4.54;72.75;98817.64;105504;1261;73682;-77
2023/02/19 09:06:55;;;;;;;10.20;3.90;;;;;;;4.51;72.80;98827.15;105749;1257;69493;-74
2023/02/19 09:09:24;;;;;;;8.60;4.20;;;;;;;4.46;72.75;98814.31;105798;1256;71633;-73
2023/02/19 09:11:52;;;;;;;5.30;3.60;;;;;;;4.41;72.89;98813.23;105670;1257;61308;-73
2023/02/19 09:14:22;;;;;;;6.50;3.90;;;;;;;4.42;73.39;98811.23;105747;1257;61098;-74
2023/02/19 09:16:51;;;;;;;6.00;3.70;;;;;;;4.40;72.73;98819.73;105616;1263;75446;-73
2023/02/19 09:19:19;;;;;;;8.20;3.60;;;;;;;4.41;72.98;98808.39;105808;1259;66467;-73
2023/02/19 09:21:47;;;;;;;8.90;4.30;;;;;;;4.41;72.98;98799.83;105755;1260;72543;-73
2023/02/19 09:24:16;;;;;;;7.00;3.40;;;;;;;4.44;73.03;98812.09;105811;1257;60779;-72
2023/02/19 09:26:44;;;;;;;8.70;3.80;;;;;;;4.47;72.75;98805.77;105837;1255;61138;-70
2023/02/19 09:29:14;;;;;;;9.10;4.70;;;;;;;4.50;72.59;98810.58;106740;1255;75299;-73
2023/02/19 09:31:43;;;;;;;9.40;3.00;;;;;;;4.51;72.07;98816.14;108326;1255;67941;-75
2023/02/19 09:34:11;;;;;;;8.80;4.00;;;;;;;4.50;71.50;98808.96;107880;1257;73262;-74
2023/02/19 09:36:39;;;;;;;5.50;3.40;;;;;;;4.45;71.38;98811.79;107510;1255;60488;-75
2023/02/19 09:39:09;;;;;;;7.70;3.10;;;;;;;4.43;71.38;98809.77;105683;1256;61896;-74
2023/02/19 09:41:44;;;;;;;4.70;3.10;;;;;;;4.41;71.12;98810.31;105732;1260;75371;-74
2023/02/19 09:44:17;;;;;;;13.00;3.80;;;;;;;4.38;71.38;98805.63;105858;1257;69175;-77
2023/02/19 09:46:46;;;;;;;7.60;3.20;;;;;;;4.38;71.58;98805.88;105798;1256;72856;-73
2023/02/19 09:49:32;;;;;;;5.20;3.60;;;;;;;4.39;71.52;98817.63;105648;1255;61696;-75
2023/02/19 09:52:06;;;;;;;5.10;3.30;;;;;;;4.41;71.39;98821.61;105538;1256;60549;-72
2023/02/19 09:54:34;;;;;;;8.10;3.70;;;;;;;4.42;70.96;98812.98;105782;1257;72261;-75
2023/02/19 09:57:03;;;;;;;7.50;3.40;;;;;;;4.44;70.64;98813.04;105725;1262;67791;-74
2023/02/19 09:59:40;;;;;;;7.10;3.80;;;;;;;4.46;70.61;98809.41;105696;1256;73527;-74
2023/02/19 10:02:18;;;;;;;6.10;3.70;;;;;;;4.48;70.88;98800.52;105830;1257;60909;-72
2023/02/19 10:04:47;;;;;;;17.40;3.50;;;;;;;4.49;70.96;98798.16;105802;1259;60434;-75
2023/02/19 10:07:23;;;;;;;10.70;5.10;;;;;;;4.49;71.08;98786.73;105736;1256;75059;-73
2023/02/19 10:10:19;;;;;;;7.40;4.00;;;;;;;4.45;71.18;98786.98;105474;1259;68413;-72
2023/02/19 10:12:52;;;;;;;12.90;3.30;;;;;;;4.43;71.09;98775.00;105565;1257;73770;-75
2023/02/19 10:15:59;;;;;;;6.90;3.30;;;;;;;4.40;71.22;98782.14;105785;1255;60684;-76
2023/02/19 10:18:31;;;;;;;7.20;3.80;;;;;;;4.39;71.49;98779.83;105350;1260;61334;-76
2023/02/19 10:20:59;;;;;;;10.60;4.00;;;;;;;4.36;71.56;98778.80;105340;1255;72861;-75
2023/02/19 10:23:28;;;;;;;6.30;3.70;;;;;;;4.34;71.63;98782.16;105599;1257;69130;-75
2023/02/19 10:25:57;;;;;;;11.70;3.90;;;;;;;4.31;71.80;98785.49;105761;1257;73565;-77
2023/02/19 10:28:28;;;;;;;6.80;3.60;;;;;;;4.29;71.90;98773.48;105676;1257;60551;-76
2023/02/19 10:30:57;;;;;;;8.20;3.90;;;;;;;4.31;72.05;98766.23;105646;1262;60475;-74
2023/02/19 10:33:29;;;;;;;8.80;3.80;;;;;;;4.36;71.79;98776.73;105693;1261;75016;-74
2023/02/19 10:36:02;;;;;;;10.10;3.10;;;;;;;4.38;71.58;98774.27;105859;1257;68719;-73
2023/02/19 10:38:44;;;;;;;5.30;2.70;;;;;;;4.40;71.64;98775.27;105766;1259;74212;-72
2023/02/19 10:41:19;;;;;;;9.20;4.00;;;;;;;4.40;71.23;98766.54;105661;1257;60887;-74
2023/02/19 10:44:06;;;;;;;6.60;3.30;;;;;;;4.39;71.35;98761.23;105609;1257;60519;-73
2023/02/19 10:46:40;;;;;;;8.40;3.30;;;;;;;4.36;70.98;98762.45;105802;1256;74722;-72
2023/02/19 10:49:31;;;;;;;6.60;3.60;;;;;;;4.35;71.03;98746.68;105749;1256;68011;-71
2023/02/19 10:52:21;;;;;;;13.50;3.40;;;;;;;4.36;71.12;98742.07;105707;1260;71278;-74
2023/02/19 10:55:08;;;;;;;9.70;3.80;;;;;;;4.38;70.62;98728.84;105755;1259;60550;-73
2023/02/19 10:57:37;;;;;;;7.50;3.90;;;;;;;4.40;70.57;98729.69;105736;1257;61266;-73
2023/02/19 11:00:14;;;;;;;5.70;3.00;;;;;;;4.39;70.49;98747.10;105713;1256;74218;-74
2023/02/19 11:02:43;;;;;;;10.50;5.10;;;;;;;4.39;70.66;98713.02;105669;1257;68567;-76
2023/02/19 11:05:13;;;;;;;5.60;3.10;;;;;;;4.42;70.82;98700.19;105590;1257;72300;-73
2023/02/19 11:07:55;;;;;;;7.60;3.50;;;;;;;4.47;70.70;98704.01;105917;1260;62806;-74
2023/02/19 11:10:38;;;;;;;10.70;3.60;;;;;;;4.52;70.28;98703.64;105871;1259;60437;-73
2023/02/19 11:13:16;;;;;;;4.70;3.40;;;;;;;4.57;69.26;98700.55;105918;1259;74370;-73
2023/02/19 11:15:50;;;;;;;9.80;2.80;;;;;;;4.62;69.20;98696.07;105893;1257;69579;-72
2023/02/19 11:18:24;;;;;;;4.30;3.00;;;;;;;4.65;68.80;98687.84;105782;1259;72261;-73
2023/02/19 11:20:53;;;;;;;5.90;3.60;;;;;;;4.67;67.97;98684.66;105694;1257;61402;-75
2023/02/19 11:23:30;;;;;;;5.00;3.20;;;;;;;4.67;67.22;98679.29;105752;1257;60538;-76
2023/02/19 11:26:05;;;;;;;12.30;3.60;;;;;;;4.66;67.41;98684.27;105764;1260;75846;-73
2023/02/19 11:28:38;;;;;;;9.10;4.00;;;;;;;4.64;67.31;98677.96;105942;1255;69539;-79
2023/02/19 11:31:18;;;;;;;11.50;3.80;;;;;;;4.62;67.19;98671.52;105804;1256;73862;-77
2023/02/19 11:34:00;;;;;;;6.90;3.20;;;;;;;4.60;67.14;98672.60;105744;1275;60605;-79
2023/02/19 11:36:32;;;;;;;14.20;4.30;;;;;;;4.56;67.49;98681.90;105834;1257;62130;-76
2023/02/19 11:39:16;;;;;;;9.30;4.40;;;;;;;4.54;67.99;98669.61;105675;1261;75741;-73
2023/02/19 11:42:12;;;;;;;6.50;3.40;;;;;;;4.54;68.46;98667.97;105819;1257;68146;-73
2023/02/19 11:44:50;;;;;;;6.80;3.40;;;;;;;4.57;68.71;98660.39;105862;1256;73634;-76
2023/02/19 11:47:59;;;;;;;8.20;5.00;;;;;;;4.59;68.80;98668.98;105822;1257;60517;-75
2023/02/19 11:51:05;;;;;;;8.10;4.60;;;;;;;4.61;68.86;98676.93;105445;1266;60460;-76
2023/02/19 11:53:38;;;;;;;3.50;2.80;;;;;;;4.59;69.07;98669.67;105928;1258;73557;-77
2023/02/19 11:56:10;;;;;;;6.30;2.90;;;;;;;4.58;68.78;98683.70;105883;1257;69237;-76
2023/02/19 11:59:04;;;;;;;11.30;3.40;;;;;;;4.59;68.97;98679.92;105842;1260;73853;-78
2023/02/19 12:01:51;;;;;;;5.00;4.20;;;;;;;4.60;68.83;98679.69;106270;1255;60495;-83
2023/02/19 12:04:58;;;;;;;6.70;3.70;;;;;;;4.61;69.00;98674.65;106181;1255;62089;-80
2023/02/19 12:07:42;;;;;;;6.70;4.10;;;;;;;4.64;68.76;98682.27;106216;1257;73885;-84
2023/02/19 12:10:22;;;;;;;7.30;3.70;;;;;;;4.64;68.48;98679.45;106359;1257;68627;-80
2023/02/19 12:13:01;;;;;;;14.80;6.20;;;;;;;4.63;68.29;98680.60;105959;1257;73066;-77
2023/02/19 12:16:02;;;;;;;5.90;3.10;;;;;;;4.64;68.33;98682.53;105898;1255;60463;-71
2023/02/19 12:18:46;;;;;;;5.40;3.40;;;;;;;4.64;68.18;98684.45;105749;1257;61151;-73
2023/02/19 12:21:50;;;;;;;7.90;3.10;;;;;;;4.64;68.01;98678.06;105948;1257;74982;-70
2023/02/19 12:24:48;;;;;;;8.20;3.10;;;;;;;4.66;68.03;98673.89;105857;1257;67224;-73
2023/02/19 12:27:45;;;;;;;4.90;3.00;;;;;;;4.69;67.71;98679.98;105714;1256;73068;-72
2023/02/19 12:30:48;;;;;;;7.60;4.00;;;;;;;4.71;67.21;98686.13;105608;1257;60322;-70
2023/02/19 12:33:54;;;;;;;5.80;3.70;;;;;;;4.71;66.48;98691.19;105989;1257;60460;-73
2023/02/19 12:36:30;;;;;;;5.50;3.70;;;;;;;4.69;65.74;98681.58;105753;1257;75608;-72
2023/02/19 12:39:13;;;;;;;8.00;3.60;;;;;;;4.67;65.24;98683.30;105730;1255;68281;-71